sensor_id;sensor_type;location;lat;lon;timestamp;P1;durP1;ratioP1;P2;durP2;ratioP2
20725;SDS011;10524;48.132;8.518;2023-02-28T00:01:18;7.73;;;5.17;;
20725;SDS011;10524;48.132;8.518;2023-02-28T00:03:44;7.78;;;5.20;;
20725;SDS011;10524;48.132;8.518;2023-02-28T00:06:09;5.85;;;4.65;;
20725;SDS011;10524;48.132;8.518;2023-02-28T00:08:36;5.78;;;4.85;;
20725;SDS011;10524;48.132;8.518;2023-02-28T00:11:03;7.75;;;5.20;;
20725;SDS011;10524;48.132;8.518;2023-02-28T00:13:29;6.00;;;5.05;;
20725;SDS011;10524;48.132;8.518;2023-02-28T00:16:00;6.53;;;4.90;;
20725;SDS011;10524;48.132;8.518;2023-02-28T00:18:36;6.35;;;5.10;;
20725;SDS011;10524;48.132;8.518;2023-02-28T00:21:02;8.65;;;5.40;;
20725;SDS011;10524;48.132;8.518;2023-02-28T00:23:28;6.20;;;5.53;;
20725;SDS011;10524;48.132;8.518;2023-02-28T00:25:54;6.55;;;4.88;;
20725;SDS011;10524;48.132;8.518;2023-02-28T00:28:20;8.18;;;5.50;;
20725;SDS011;10524;48.132;8.518;2023-02-28T00:30:46;6.00;;;5.00;;
20725;SDS011;10524;48.132;8.518;2023-02-28T00:33:12;6.72;;;5.40;;
20725;SDS011;10524;48.132;8.518;2023-02-28T00:35:37;6.70;;;5.13;;
20725;SDS011;10524;48.132;8.518;2023-02-28T00:38:03;8.07;;;5.40;;
20725;SDS011;10524;48.132;8.518;2023-02-28T00:40:29;8.80;;;5.60;;
20725;SDS011;10524;48.132;8.518;2023-02-28T00:42:55;9.00;;;5.80;;
20725;SDS011;10524;48.132;8.518;2023-02-28T00:45:20;7.90;;;5.63;;
20725;SDS011;10524;48.132;8.518;2023-02-28T00:47:46;6.63;;;5.53;;
20725;SDS011;10524;48.132;8.518;2023-02-28T00:50:14;7.95;;;5.45;;
20725;SDS011;10524;48.132;8.518;2023-02-28T00:52:44;7.53;;;5.70;;
20725;SDS011;10524;48.132;8.518;2023-02-28T00:55:09;7.00;;;5.38;;
20725;SDS011;10524;48.132;8.518;2023-02-28T00:57:35;7.03;;;5.75;;
20725;SDS011;10524;48.132;8.518;2023-02-28T01:00:01;7.28;;;5.68;;
20725;SDS011;10524;48.132;8.518;2023-02-28T01:02:28;7.07;;;5.50;;
20725;SDS011;10524;48.132;8.518;2023-02-28T01:04:54;7.93;;;5.60;;
20725;SDS011;10524;48.132;8.518;2023-02-28T01:07:19;8.25;;;5.60;;
20725;SDS011;10524;48.132;8.518;2023-02-28T01:09:45;7.40;;;5.80;;
20725;SDS011;10524;48.132;8.518;2023-02-28T01:12:11;7.25;;;5.53;;
20725;SDS011;10524;48.132;8.518;2023-02-28T01:14:37;6.90;;;5.40;;
20725;SDS011;10524;48.132;8.518;2023-02-28T01:17:02;6.00;;;5.22;;
20725;SDS011;10524;48.132;8.518;2023-02-28T01:19:28;8.20;;;5.50;;
20725;SDS011;10524;48.132;8.518;2023-02-28T01:21:54;6.63;;;4.85;;
20725;SDS011;10524;48.132;8.518;2023-02-28T01:24:19;7.20;;;5.40;;
20725;SDS011;10524;48.132;8.518;2023-02-28T01:26:45;7.60;;;5.30;;
20725;SDS011;10524;48.132;8.518;2023-02-28T01:29:10;7.00;;;5.20;;
20725;SDS011;10524;48.132;8.518;2023-02-28T01:31:36;6.20;;;5.30;;
20725;SDS011;10524;48.132;8.518;2023-02-28T01:34:02;7.30;;;5.10;;
20725;SDS011;10524;48.132;8.518;2023-02-28T01:36:28;7.40;;;5.15;;
20725;SDS011;10524;48.132;8.518;2023-02-28T01:38:53;5.93;;;4.75;;
20725;SDS011;10524;48.132;8.518;2023-02-28T01:46:13;7.20;;;5.28;;
20725;SDS011;10524;48.132;8.518;2023-02-28T01:48:51;7.13;;;5.43;;
20725;SDS011;10524;48.132;8.518;2023-02-28T01:51:30;7.45;;;5.35;;
20725;SDS011;10524;48.132;8.518;2023-02-28T01:54:02;6.47;;;5.22;;
20725;SDS011;10524;48.132;8.518;2023-02-28T01:56:38;6.93;;;5.13;;
20725;SDS011;10524;48.132;8.518;2023-02-28T01:59:07;8.45;;;5.30;;
20725;SDS011;10524;48.132;8.518;2023-02-28T02:01:32;7.72;;;5.65;;
20725;SDS011;10524;48.132;8.518;2023-02-28T02:04:00;7.25;;;5.20;;
20725;SDS011;10524;48.132;8.518;2023-02-28T02:07:00;8.48;;;5.78;;
20725;SDS011;10524;48.132;8.518;2023-02-28T02:09:19;8.30;;;5.80;;
20725;SDS011;10524;48.132;8.518;2023-02-28T02:11:44;7.93;;;5.80;;
20725;SDS011;10524;48.132;8.518;2023-02-28T02:28:21;8.10;;;5.47;;
20725;SDS011;10524;48.132;8.518;2023-02-28T02:37:02;7.93;;;5.80;;
20725;SDS011;10524;48.132;8.518;2023-02-28T02:42:34;8.57;;;6.15;;
20725;SDS011;10524;48.132;8.518;2023-02-28T02:45:21;8.63;;;6.30;;
20725;SDS011;10524;48.132;8.518;2023-02-28T02:47:54;9.52;;;6.38;;
20725;SDS011;10524;48.132;8.518;2023-02-28T02:50:25;8.40;;;5.80;;
20725;SDS011;10524;48.132;8.518;2023-02-28T02:52:56;8.15;;;6.35;;
20725;SDS011;10524;48.132;8.518;2023-02-28T02:55:25;8.02;;;6.53;;
20725;SDS011;10524;48.132;8.518;2023-02-28T02:57:57;9.55;;;6.28;;
20725;SDS011;10524;48.132;8.518;2023-02-28T03:00:28;8.70;;;6.47;;
20725;SDS011;10524;48.132;8.518;2023-02-28T03:02:59;10.00;;;5.85;;
20725;SDS011;10524;48.132;8.518;2023-02-28T03:05:28;7.72;;;6.25;;
20725;SDS011;10524;48.132;8.518;2023-02-28T03:08:02;9.45;;;6.53;;
20725;SDS011;10524;48.132;8.518;2023-02-28T03:24:32;10.43;;;6.68;;
20725;SDS011;10524;48.132;8.518;2023-02-28T03:27:07;8.35;;;6.60;;
20725;SDS011;10524;48.132;8.518;2023-02-28T03:29:42;8.45;;;6.72;;
20725;SDS011;10524;48.132;8.518;2023-02-28T03:34:48;10.15;;;6.50;;
20725;SDS011;10524;48.132;8.518;2023-02-28T03:37:22;9.95;;;7.00;;
20725;SDS011;10524;48.132;8.518;2023-02-28T03:39:53;9.02;;;7.32;;
20725;SDS011;10524;48.132;8.518;2023-02-28T03:42:25;9.13;;;6.95;;
20725;SDS011;10524;48.132;8.518;2023-02-28T03:44:56;9.35;;;7.15;;
20725;SDS011;10524;48.132;8.518;2023-02-28T03:52:50;9.57;;;7.72;;
20725;SDS011;10524;48.132;8.518;2023-02-28T03:55:30;12.55;;;8.70;;
20725;SDS011;10524;48.132;8.518;2023-02-28T04:00:45;12.90;;;8.88;;
20725;SDS011;10524;48.132;8.518;2023-02-28T04:03:14;10.45;;;8.25;;
20725;SDS011;10524;48.132;8.518;2023-02-28T04:06:00;11.88;;;7.97;;
20725;SDS011;10524;48.132;8.518;2023-02-28T04:08:25;13.02;;;8.52;;
20725;SDS011;10524;48.132;8.518;2023-02-28T04:10:53;11.95;;;8.77;;
20725;SDS011;10524;48.132;8.518;2023-02-28T04:13:29;11.75;;;8.20;;
20725;SDS011;10524;48.132;8.518;2023-02-28T04:15:54;12.60;;;8.90;;
20725;SDS011;10524;48.132;8.518;2023-02-28T04:18:20;11.65;;;8.27;;
20725;SDS011;10524;48.132;8.518;2023-02-28T04:20:46;11.88;;;8.65;;
20725;SDS011;10524;48.132;8.518;2023-02-28T04:23:11;11.55;;;8.45;;
20725;SDS011;10524;48.132;8.518;2023-02-28T04:25:37;13.48;;;9.35;;
20725;SDS011;10524;48.132;8.518;2023-02-28T04:28:05;12.57;;;8.38;;
20725;SDS011;10524;48.132;8.518;2023-02-28T04:30:31;12.20;;;8.52;;
20725;SDS011;10524;48.132;8.518;2023-02-28T04:32:57;11.57;;;9.05;;
20725;SDS011;10524;48.132;8.518;2023-02-28T04:35:23;13.20;;;9.05;;
20725;SDS011;10524;48.132;8.518;2023-02-28T04:37:49;14.95;;;10.48;;
20725;SDS011;10524;48.132;8.518;2023-02-28T04:40:14;12.43;;;8.82;;
20725;SDS011;10524;48.132;8.518;2023-02-28T04:42:40;13.75;;;9.38;;
20725;SDS011;10524;48.132;8.518;2023-02-28T04:45:06;12.77;;;8.77;;
20725;SDS011;10524;48.132;8.518;2023-02-28T04:47:35;13.80;;;9.15;;
20725;SDS011;10524;48.132;8.518;2023-02-28T04:50:01;13.80;;;9.35;;
20725;SDS011;10524;48.132;8.518;2023-02-28T04:52:27;11.13;;;8.40;;
20725;SDS011;10524;48.132;8.518;2023-02-28T04:54:52;13.73;;;9.98;;
20725;SDS011;10524;48.132;8.518;2023-02-28T04:57:18;19.27;;;12.50;;
20725;SDS011;10524;48.132;8.518;2023-02-28T04:59:43;16.40;;;9.23;;
20725;SDS011;10524;48.132;8.518;2023-02-28T05:02:09;16.85;;;11.27;;
20725;SDS011;10524;48.132;8.518;2023-02-28T05:04:35;12.73;;;9.50;;
20725;SDS011;10524;48.132;8.518;2023-02-28T05:07:01;14.27;;;9.38;;
20725;SDS011;10524;48.132;8.518;2023-02-28T05:09:28;11.38;;;9.27;;
20725;SDS011;10524;48.132;8.518;2023-02-28T05:11:54;15.60;;;9.75;;
20725;SDS011;10524;48.132;8.518;2023-02-28T05:14:20;16.30;;;9.90;;
20725;SDS011;10524;48.132;8.518;2023-02-28T05:16:46;15.63;;;10.13;;
20725;SDS011;10524;48.132;8.518;2023-02-28T05:19:11;12.70;;;9.00;;
20725;SDS011;10524;48.132;8.518;2023-02-28T05:21:40;13.57;;;9.77;;
20725;SDS011;10524;48.132;8.518;2023-02-28T05:24:14;18.23;;;11.25;;
20725;SDS011;10524;48.132;8.518;2023-02-28T05:26:41;16.70;;;10.48;;
20725;SDS011;10524;48.132;8.518;2023-02-28T05:29:08;15.27;;;10.07;;
20725;SDS011;10524;48.132;8.518;2023-02-28T05:31:34;14.38;;;9.63;;
20725;SDS011;10524;48.132;8.518;2023-02-28T05:34:00;18.15;;;13.18;;
20725;SDS011;10524;48.132;8.518;2023-02-28T05:36:29;14.85;;;10.75;;
20725;SDS011;10524;48.132;8.518;2023-02-28T05:38:54;13.55;;;9.60;;
20725;SDS011;10524;48.132;8.518;2023-02-28T05:41:20;15.60;;;10.30;;
20725;SDS011;10524;48.132;8.518;2023-02-28T05:43:46;15.73;;;11.00;;
20725;SDS011;10524;48.132;8.518;2023-02-28T05:46:12;12.50;;;10.52;;
20725;SDS011;10524;48.132;8.518;2023-02-28T05:48:39;16.52;;;10.18;;
20725;SDS011;10524;48.132;8.518;2023-02-28T05:51:06;14.43;;;10.55;;
20725;SDS011;10524;48.132;8.518;2023-02-28T05:53:32;13.85;;;10.38;;
20725;SDS011;10524;48.132;8.518;2023-02-28T05:55:58;15.90;;;11.80;;
20725;SDS011;10524;48.132;8.518;2023-02-28T05:58:25;15.60;;;10.40;;
20725;SDS011;10524;48.132;8.518;2023-02-28T06:00:54;19.08;;;11.95;;
20725;SDS011;10524;48.132;8.518;2023-02-28T06:03:19;14.05;;;10.82;;
20725;SDS011;10524;48.132;8.518;2023-02-28T06:05:45;15.98;;;12.65;;
20725;SDS011;10524;48.132;8.518;2023-02-28T06:08:11;16.85;;;10.98;;
20725;SDS011;10524;48.132;8.518;2023-02-28T06:10:36;15.93;;;11.65;;
20725;SDS011;10524;48.132;8.518;2023-02-28T06:13:02;17.33;;;12.13;;
20725;SDS011;10524;48.132;8.518;2023-02-28T06:15:29;17.73;;;12.38;;
20725;SDS011;10524;48.132;8.518;2023-02-28T06:17:55;15.68;;;11.52;;
20725;SDS011;10524;48.132;8.518;2023-02-28T06:20:21;17.75;;;12.65;;
20725;SDS011;10524;48.132;8.518;2023-02-28T06:22:48;14.98;;;11.40;;
20725;SDS011;10524;48.132;8.518;2023-02-28T06:25:15;19.95;;;12.73;;
20725;SDS011;10524;48.132;8.518;2023-02-28T06:27:41;17.80;;;11.35;;
20725;SDS011;10524;48.132;8.518;2023-02-28T06:30:08;18.00;;;12.15;;
20725;SDS011;10524;48.132;8.518;2023-02-28T06:32:34;15.85;;;11.35;;
20725;SDS011;10524;48.132;8.518;2023-02-28T06:35:00;17.13;;;12.25;;
20725;SDS011;10524;48.132;8.518;2023-02-28T06:37:26;17.50;;;12.27;;
20725;SDS011;10524;48.132;8.518;2023-02-28T06:39:52;17.80;;;12.25;;
20725;SDS011;10524;48.132;8.518;2023-02-28T06:42:20;16.95;;;11.95;;
20725;SDS011;10524;48.132;8.518;2023-02-28T06:44:54;17.60;;;12.10;;
20725;SDS011;10524;48.132;8.518;2023-02-28T06:47:20;17.13;;;11.52;;
20725;SDS011;10524;48.132;8.518;2023-02-28T06:49:46;17.85;;;12.13;;
20725;SDS011;10524;48.132;8.518;2023-02-28T06:52:11;19.95;;;13.35;;
20725;SDS011;10524;48.132;8.518;2023-02-28T06:54:37;20.38;;;13.88;;
20725;SDS011;10524;48.132;8.518;2023-02-28T06:57:03;17.80;;;12.30;;
20725;SDS011;10524;48.132;8.518;2023-02-28T06:59:28;20.50;;;13.02;;
20725;SDS011;10524;48.132;8.518;2023-02-28T07:01:54;15.95;;;11.82;;
20725;SDS011;10524;48.132;8.518;2023-02-28T07:04:20;17.70;;;13.27;;
20725;SDS011;10524;48.132;8.518;2023-02-28T07:06:46;19.60;;;12.38;;
20725;SDS011;10524;48.132;8.518;2023-02-28T07:09:12;20.80;;;13.25;;
20725;SDS011;10524;48.132;8.518;2023-02-28T07:11:38;20.38;;;13.73;;
20725;SDS011;10524;48.132;8.518;2023-02-28T07:14:05;21.05;;;13.75;;
20725;SDS011;10524;48.132;8.518;2023-02-28T07:16:31;20.00;;;13.23;;
20725;SDS011;10524;48.132;8.518;2023-02-28T07:18:57;19.48;;;13.25;;
20725;SDS011;10524;48.132;8.518;2023-02-28T07:21:23;18.35;;;13.48;;
20725;SDS011;10524;48.132;8.518;2023-02-28T07:23:48;17.70;;;12.85;;
20725;SDS011;10524;48.132;8.518;2023-02-28T07:26:15;18.60;;;12.55;;
20725;SDS011;10524;48.132;8.518;2023-02-28T07:28:42;16.95;;;12.63;;
20725;SDS011;10524;48.132;8.518;2023-02-28T07:31:10;18.98;;;13.27;;
20725;SDS011;10524;48.132;8.518;2023-02-28T07:33:36;19.98;;;13.55;;
20725;SDS011;10524;48.132;8.518;2023-02-28T07:36:03;18.52;;;13.75;;
20725;SDS011;10524;48.132;8.518;2023-02-28T07:38:33;19.00;;;12.80;;
20725;SDS011;10524;48.132;8.518;2023-02-28T07:41:00;18.00;;;12.98;;
20725;SDS011;10524;48.132;8.518;2023-02-28T07:43:26;17.42;;;12.32;;
20725;SDS011;10524;48.132;8.518;2023-02-28T07:45:51;19.08;;;14.45;;
20725;SDS011;10524;48.132;8.518;2023-02-28T07:48:17;18.02;;;12.75;;
20725;SDS011;10524;48.132;8.518;2023-02-28T07:50:42;17.48;;;13.20;;
20725;SDS011;10524;48.132;8.518;2023-02-28T07:53:08;16.88;;;11.50;;
20725;SDS011;10524;48.132;8.518;2023-02-28T07:55:34;19.60;;;12.25;;
20725;SDS011;10524;48.132;8.518;2023-02-28T07:58:00;17.35;;;12.57;;
20725;SDS011;10524;48.132;8.518;2023-02-28T08:00:25;16.88;;;12.40;;
20725;SDS011;10524;48.132;8.518;2023-02-28T08:02:51;17.23;;;11.55;;
20725;SDS011;10524;48.132;8.518;2023-02-28T08:05:16;15.63;;;11.43;;
20725;SDS011;10524;48.132;8.518;2023-02-28T08:07:42;18.15;;;11.10;;
20725;SDS011;10524;48.132;8.518;2023-02-28T08:10:08;14.55;;;9.95;;
20725;SDS011;10524;48.132;8.518;2023-02-28T08:12:35;16.08;;;10.40;;
20725;SDS011;10524;48.132;8.518;2023-02-28T08:15:00;14.77;;;9.85;;
20725;SDS011;10524;48.132;8.518;2023-02-28T08:17:26;16.05;;;11.13;;
20725;SDS011;10524;48.132;8.518;2023-02-28T08:19:52;15.85;;;9.93;;
20725;SDS011;10524;48.132;8.518;2023-02-28T08:22:18;16.67;;;10.38;;
20725;SDS011;10524;48.132;8.518;2023-02-28T08:24:43;17.25;;;11.25;;
20725;SDS011;10524;48.132;8.518;2023-02-28T08:27:09;14.20;;;9.90;;
20725;SDS011;10524;48.132;8.518;2023-02-28T08:29:38;15.55;;;10.93;;
20725;SDS011;10524;48.132;8.518;2023-02-28T08:32:05;16.65;;;10.13;;
20725;SDS011;10524;48.132;8.518;2023-02-28T08:34:32;16.13;;;10.02;;
20725;SDS011;10524;48.132;8.518;2023-02-28T08:36:57;16.70;;;9.88;;
20725;SDS011;10524;48.132;8.518;2023-02-28T08:39:23;17.58;;;10.80;;
20725;SDS011;10524;48.132;8.518;2023-02-28T08:41:48;15.48;;;9.57;;
20725;SDS011;10524;48.132;8.518;2023-02-28T08:44:14;18.40;;;10.15;;
20725;SDS011;10524;48.132;8.518;2023-02-28T08:46:40;18.38;;;10.32;;
20725;SDS011;10524;48.132;8.518;2023-02-28T08:49:05;16.92;;;10.30;;
20725;SDS011;10524;48.132;8.518;2023-02-28T08:51:31;14.43;;;10.00;;
20725;SDS011;10524;48.132;8.518;2023-02-28T08:53:58;14.38;;;9.73;;
20725;SDS011;10524;48.132;8.518;2023-02-28T08:56:25;15.23;;;10.13;;
20725;SDS011;10524;48.132;8.518;2023-02-28T08:58:53;15.90;;;10.80;;
20725;SDS011;10524;48.132;8.518;2023-02-28T09:01:22;19.15;;;10.07;;
20725;SDS011;10524;48.132;8.518;2023-02-28T09:03:49;17.48;;;10.13;;
20725;SDS011;10524;48.132;8.518;2023-02-28T09:06:16;15.35;;;9.60;;
20725;SDS011;10524;48.132;8.518;2023-02-28T09:08:43;14.82;;;10.02;;
20725;SDS011;10524;48.132;8.518;2023-02-28T09:11:09;16.40;;;10.02;;
20725;SDS011;10524;48.132;8.518;2023-02-28T09:13:36;15.43;;;10.20;;
20725;SDS011;10524;48.132;8.518;2023-02-28T09:16:02;15.50;;;9.90;;
20725;SDS011;10524;48.132;8.518;2023-02-28T09:18:30;17.20;;;9.90;;
20725;SDS011;10524;48.132;8.518;2023-02-28T09:20:56;15.05;;;9.52;;
20725;SDS011;10524;48.132;8.518;2023-02-28T09:23:22;14.40;;;9.88;;
20725;SDS011;10524;48.132;8.518;2023-02-28T09:25:49;16.63;;;10.38;;
20725;SDS011;10524;48.132;8.518;2023-02-28T09:28:19;17.75;;;10.90;;
20725;SDS011;10524;48.132;8.518;2023-02-28T09:30:46;26.73;;;14.95;;
20725;SDS011;10524;48.132;8.518;2023-02-28T09:33:14;17.70;;;11.75;;
20725;SDS011;10524;48.132;8.518;2023-02-28T09:35:41;19.08;;;11.52;;
20725;SDS011;10524;48.132;8.518;2023-02-28T09:38:07;16.05;;;10.95;;
20725;SDS011;10524;48.132;8.518;2023-02-28T09:40:56;18.10;;;11.45;;
20725;SDS011;10524;48.132;8.518;2023-02-28T09:43:25;18.20;;;11.45;;
20725;SDS011;10524;48.132;8.518;2023-02-28T09:48:33;17.23;;;11.47;;
20725;SDS011;10524;48.132;8.518;2023-02-28T09:51:03;17.92;;;11.38;;
20725;SDS011;10524;48.132;8.518;2023-02-28T09:53:31;15.55;;;10.07;;
20725;SDS011;10524;48.132;8.518;2023-02-28T09:56:03;18.05;;;11.32;;
20725;SDS011;10524;48.132;8.518;2023-02-28T09:58:42;17.45;;;11.57;;
20725;SDS011;10524;48.132;8.518;2023-02-28T10:01:23;18.58;;;12.32;;
20725;SDS011;10524;48.132;8.518;2023-02-28T10:03:56;17.10;;;10.90;;
20725;SDS011;10524;48.132;8.518;2023-02-28T10:06:29;17.73;;;11.05;;
20725;SDS011;10524;48.132;8.518;2023-02-28T10:09:02;16.00;;;11.05;;
20725;SDS011;10524;48.132;8.518;2023-02-28T10:11:50;17.73;;;11.35;;
20725;SDS011;10524;48.132;8.518;2023-02-28T10:14:18;16.80;;;11.40;;
20725;SDS011;10524;48.132;8.518;2023-02-28T10:16:50;16.60;;;10.98;;
20725;SDS011;10524;48.132;8.518;2023-02-28T10:21:51;17.25;;;11.85;;
20725;SDS011;10524;48.132;8.518;2023-02-28T10:24:26;16.75;;;11.43;;
20725;SDS011;10524;48.132;8.518;2023-02-28T10:27:12;17.08;;;12.20;;
20725;SDS011;10524;48.132;8.518;2023-02-28T10:29:44;16.60;;;11.55;;
20725;SDS011;10524;48.132;8.518;2023-02-28T10:32:19;20.20;;;13.35;;
20725;SDS011;10524;48.132;8.518;2023-02-28T10:35:32;27.52;;;15.10;;
20725;SDS011;10524;48.132;8.518;2023-02-28T10:37:39;26.00;;;14.35;;
20725;SDS011;10524;48.132;8.518;2023-02-28T10:40:06;16.42;;;11.73;;
20725;SDS011;10524;48.132;8.518;2023-02-28T10:43:03;16.45;;;11.95;;
20725;SDS011;10524;48.132;8.518;2023-02-28T10:45:34;18.67;;;12.93;;
20725;SDS011;10524;48.132;8.518;2023-02-28T10:53:24;16.30;;;11.77;;
20725;SDS011;10524;48.132;8.518;2023-02-28T10:55:58;18.30;;;12.13;;
20725;SDS011;10524;48.132;8.518;2023-02-28T10:58:31;14.93;;;11.70;;
20725;SDS011;10524;48.132;8.518;2023-02-28T11:03:57;16.20;;;11.82;;
20725;SDS011;10524;48.132;8.518;2023-02-28T11:06:29;15.57;;;11.65;;
20725;SDS011;10524;48.132;8.518;2023-02-28T11:09:06;17.30;;;12.13;;
20725;SDS011;10524;48.132;8.518;2023-02-28T11:11:49;17.42;;;11.95;;
20725;SDS011;10524;48.132;8.518;2023-02-28T11:14:22;17.92;;;12.48;;
20725;SDS011;10524;48.132;8.518;2023-02-28T11:17:00;16.70;;;11.88;;
20725;SDS011;10524;48.132;8.518;2023-02-28T11:19:39;15.73;;;11.65;;
20725;SDS011;10524;48.132;8.518;2023-02-28T11:22:09;15.90;;;11.55;;
20725;SDS011;10524;48.132;8.518;2023-02-28T11:24:42;17.10;;;12.80;;
20725;SDS011;10524;48.132;8.518;2023-02-28T11:29:56;15.75;;;11.52;;
20725;SDS011;10524;48.132;8.518;2023-02-28T11:32:24;16.75;;;12.27;;
20725;SDS011;10524;48.132;8.518;2023-02-28T11:35:04;15.65;;;11.68;;
20725;SDS011;10524;48.132;8.518;2023-02-28T11:37:54;16.83;;;12.10;;
20725;SDS011;10524;48.132;8.518;2023-02-28T11:43:26;21.40;;;13.70;;
20725;SDS011;10524;48.132;8.518;2023-02-28T11:45:55;18.15;;;12.70;;
20725;SDS011;10524;48.132;8.518;2023-02-28T11:48:32;19.35;;;12.75;;
20725;SDS011;10524;48.132;8.518;2023-02-28T11:56:41;18.63;;;12.90;;
20725;SDS011;10524;48.132;8.518;2023-02-28T12:05:09;18.77;;;12.52;;
20725;SDS011;10524;48.132;8.518;2023-02-28T12:21:01;15.95;;;12.25;;
20725;SDS011;10524;48.132;8.518;2023-02-28T12:23:49;24.35;;;14.95;;
20725;SDS011;10524;48.132;8.518;2023-02-28T12:26:38;17.63;;;12.48;;
20725;SDS011;10524;48.132;8.518;2023-02-28T12:29:19;18.38;;;12.15;;
20725;SDS011;10524;48.132;8.518;2023-02-28T12:34:31;15.82;;;11.77;;
20725;SDS011;10524;48.132;8.518;2023-02-28T12:37:04;18.55;;;12.52;;
20725;SDS011;10524;48.132;8.518;2023-02-28T12:39:39;14.23;;;11.50;;
20725;SDS011;10524;48.132;8.518;2023-02-28T12:42:11;17.92;;;12.43;;
20725;SDS011;10524;48.132;8.518;2023-02-28T12:44:44;17.80;;;12.95;;
20725;SDS011;10524;48.132;8.518;2023-02-28T12:47:17;17.23;;;12.73;;
20725;SDS011;10524;48.132;8.518;2023-02-28T12:49:53;17.27;;;12.48;;
20725;SDS011;10524;48.132;8.518;2023-02-28T12:52:28;18.80;;;13.88;;
20725;SDS011;10524;48.132;8.518;2023-02-28T13:01:21;15.73;;;12.73;;
20725;SDS011;10524;48.132;8.518;2023-02-28T13:09:18;20.30;;;13.82;;
20725;SDS011;10524;48.132;8.518;2023-02-28T13:11:46;21.55;;;14.52;;
20725;SDS011;10524;48.132;8.518;2023-02-28T13:14:24;21.20;;;14.13;;
20725;SDS011;10524;48.132;8.518;2023-02-28T13:19:18;18.77;;;13.80;;
20725;SDS011;10524;48.132;8.518;2023-02-28T13:21:48;17.92;;;13.00;;
20725;SDS011;10524;48.132;8.518;2023-02-28T13:29:28;19.25;;;13.15;;
20725;SDS011;10524;48.132;8.518;2023-02-28T13:34:37;16.08;;;12.05;;
20725;SDS011;10524;48.132;8.518;2023-02-28T13:39:47;18.48;;;13.25;;
20725;SDS011;10524;48.132;8.518;2023-02-28T13:47:35;17.88;;;11.73;;
20725;SDS011;10524;48.132;8.518;2023-02-28T13:50:26;18.10;;;12.38;;
20725;SDS011;10524;48.132;8.518;2023-02-28T14:01:07;18.77;;;12.18;;
20725;SDS011;10524;48.132;8.518;2023-02-28T14:06:25;17.30;;;13.15;;
20725;SDS011;10524;48.132;8.518;2023-02-28T14:08:58;18.77;;;12.88;;
20725;SDS011;10524;48.132;8.518;2023-02-28T14:11:29;22.75;;;13.88;;
20725;SDS011;10524;48.132;8.518;2023-02-28T14:13:57;18.67;;;13.23;;
20725;SDS011;10524;48.132;8.518;2023-02-28T14:16:24;20.15;;;13.85;;
20725;SDS011;10524;48.132;8.518;2023-02-28T14:18:59;19.27;;;14.18;;
20725;SDS011;10524;48.132;8.518;2023-02-28T14:37:58;21.02;;;14.88;;
20725;SDS011;10524;48.132;8.518;2023-02-28T14:40:27;21.30;;;12.73;;
20725;SDS011;10524;48.132;8.518;2023-02-28T14:42:58;17.23;;;12.45;;
20725;SDS011;10524;48.132;8.518;2023-02-28T14:45:26;21.45;;;13.23;;
20725;SDS011;10524;48.132;8.518;2023-02-28T14:47:55;21.27;;;13.73;;
20725;SDS011;10524;48.132;8.518;2023-02-28T14:50:23;20.67;;;14.45;;
20725;SDS011;10524;48.132;8.518;2023-02-28T14:52:53;20.90;;;14.38;;
20725;SDS011;10524;48.132;8.518;2023-02-28T14:55:21;20.48;;;14.55;;
20725;SDS011;10524;48.132;8.518;2023-02-28T14:57:54;18.98;;;13.40;;
20725;SDS011;10524;48.132;8.518;2023-02-28T15:00:23;19.65;;;13.77;;
20725;SDS011;10524;48.132;8.518;2023-02-28T15:02:57;20.48;;;14.40;;
20725;SDS011;10524;48.132;8.518;2023-02-28T15:05:26;21.70;;;14.05;;
20725;SDS011;10524;48.132;8.518;2023-02-28T15:08:06;21.30;;;13.98;;
20725;SDS011;10524;48.132;8.518;2023-02-28T15:10:35;21.60;;;14.35;;
20725;SDS011;10524;48.132;8.518;2023-02-28T15:13:11;19.65;;;14.25;;
20725;SDS011;10524;48.132;8.518;2023-02-28T15:18:26;24.73;;;15.82;;
20725;SDS011;10524;48.132;8.518;2023-02-28T15:21:17;21.67;;;16.02;;
20725;SDS011;10524;48.132;8.518;2023-02-28T15:26:17;21.98;;;14.85;;
20725;SDS011;10524;48.132;8.518;2023-02-28T15:28:46;21.58;;;14.30;;
20725;SDS011;10524;48.132;8.518;2023-02-28T15:31:23;20.30;;;14.50;;
20725;SDS011;10524;48.132;8.518;2023-02-28T15:33:54;19.67;;;14.30;;
20725;SDS011;10524;48.132;8.518;2023-02-28T15:36:23;21.10;;;14.52;;
20725;SDS011;10524;48.132;8.518;2023-02-28T15:38:53;24.08;;;16.05;;
20725;SDS011;10524;48.132;8.518;2023-02-28T15:41:24;23.52;;;15.80;;
20725;SDS011;10524;48.132;8.518;2023-02-28T15:44:13;21.40;;;14.13;;
20725;SDS011;10524;48.132;8.518;2023-02-28T15:46:45;20.48;;;14.27;;
20725;SDS011;10524;48.132;8.518;2023-02-28T15:49:31;21.13;;;15.40;;
20725;SDS011;10524;48.132;8.518;2023-02-28T15:55:20;20.17;;;14.60;;
20725;SDS011;10524;48.132;8.518;2023-02-28T15:57:51;24.10;;;16.45;;
20725;SDS011;10524;48.132;8.518;2023-02-28T16:00:21;20.42;;;14.25;;
20725;SDS011;10524;48.132;8.518;2023-02-28T16:02:48;24.55;;;16.85;;
20725;SDS011;10524;48.132;8.518;2023-02-28T16:05:19;23.48;;;14.52;;
20725;SDS011;10524;48.132;8.518;2023-02-28T16:07:52;23.17;;;16.58;;
20725;SDS011;10524;48.132;8.518;2023-02-28T16:10:18;21.77;;;16.02;;
20725;SDS011;10524;48.132;8.518;2023-02-28T16:12:44;23.52;;;15.57;;
20725;SDS011;10524;48.132;8.518;2023-02-28T16:15:20;25.35;;;16.33;;
20725;SDS011;10524;48.132;8.518;2023-02-28T16:17:51;26.70;;;17.67;;
20725;SDS011;10524;48.132;8.518;2023-02-28T16:20:25;34.58;;;20.38;;
20725;SDS011;10524;48.132;8.518;2023-02-28T16:22:52;26.35;;;16.35;;
20725;SDS011;10524;48.132;8.518;2023-02-28T16:25:20;26.40;;;15.65;;
20725;SDS011;10524;48.132;8.518;2023-02-28T16:27:58;38.42;;;23.40;;
20725;SDS011;10524;48.132;8.518;2023-02-28T16:30:26;26.70;;;17.33;;
20725;SDS011;10524;48.132;8.518;2023-02-28T16:32:54;31.55;;;20.35;;
20725;SDS011;10524;48.132;8.518;2023-02-28T16:35:21;33.85;;;20.50;;
20725;SDS011;10524;48.132;8.518;2023-02-28T16:37:47;39.97;;;25.23;;
20725;SDS011;10524;48.132;8.518;2023-02-28T16:40:14;43.35;;;26.98;;
20725;SDS011;10524;48.132;8.518;2023-02-28T16:42:42;35.72;;;22.60;;
20725;SDS011;10524;48.132;8.518;2023-02-28T16:45:31;32.90;;;20.70;;
20725;SDS011;10524;48.132;8.518;2023-02-28T16:47:56;25.30;;;16.15;;
20725;SDS011;10524;48.132;8.518;2023-02-28T16:50:26;25.85;;;16.40;;
20725;SDS011;10524;48.132;8.518;2023-02-28T16:52:53;21.88;;;16.35;;
20725;SDS011;10524;48.132;8.518;2023-02-28T16:55:19;32.03;;;19.25;;
20725;SDS011;10524;48.132;8.518;2023-02-28T16:57:53;29.10;;;18.88;;
20725;SDS011;10524;48.132;8.518;2023-02-28T17:00:24;27.20;;;17.88;;
20725;SDS011;10524;48.132;8.518;2023-02-28T17:02:52;31.35;;;19.90;;
20725;SDS011;10524;48.132;8.518;2023-02-28T17:05:18;29.50;;;20.17;;
20725;SDS011;10524;48.132;8.518;2023-02-28T17:07:44;28.05;;;18.67;;
20725;SDS011;10524;48.132;8.518;2023-02-28T17:10:12;29.77;;;19.98;;
20725;SDS011;10524;48.132;8.518;2023-02-28T17:12:43;31.42;;;20.33;;
20725;SDS011;10524;48.132;8.518;2023-02-28T17:15:09;36.78;;;19.10;;
20725;SDS011;10524;48.132;8.518;2023-02-28T17:17:36;39.53;;;23.20;;
20725;SDS011;10524;48.132;8.518;2023-02-28T17:20:03;42.70;;;25.38;;
20725;SDS011;10524;48.132;8.518;2023-02-28T17:22:29;41.25;;;26.55;;
20725;SDS011;10524;48.132;8.518;2023-02-28T17:24:55;59.63;;;29.27;;
20725;SDS011;10524;48.132;8.518;2023-02-28T17:27:21;59.90;;;30.70;;